sensor_id;sensor_type;location;lat;lon;timestamp;pressure;altitude;pressure_sealevel;temperature;humidity
71565;BME280;59397;50.952;14.502;2024-03-23T00:59:01;963.68;;;9.25;100.00
71565;BME280;59397;50.952;14.502;2024-03-23T01:18:30;963.49;;;8.58;100.00
71565;BME280;59397;50.952;14.502;2024-03-23T01:38:00;963.44;;;7.73;100.00
71565;BME280;59397;50.952;14.502;2024-03-23T01:57:33;963.12;;;7.85;100.00
71565;BME280;59397;50.952;14.502;2024-03-23T02:17:04;962.80;;;6.76;100.00
71565;BME280;59397;50.952;14.502;2024-03-23T02:36:34;962.56;;;5.58;100.00
71565;BME280;59397;50.952;14.502;2024-03-23T02:56:07;962.24;;;5.18;100.00
71565;BME280;59397;50.952;14.502;2024-03-23T03:15:42;962.23;;;5.61;100.00
71565;BME280;59397;50.952;14.502;2024-03-23T03:35:18;962.12;;;5.90;100.00
71565;BME280;59397;50.952;14.502;2024-03-23T03:54:55;961.83;;;5.72;100.00
71565;BME280;59397;50.952;14.502;2024-03-23T04:14:24;961.59;;;5.49;100.00
71565;BME280;59397;50.952;14.502;2024-03-23T04:34:00;961.68;;;5.76;100.00
71565;BME280;59397;50.952;14.502;2024-03-23T04:53:35;961.17;;;5.45;100.00
71565;BME280;59397;50.952;14.502;2024-03-23T05:13:08;960.88;;;5.90;100.00
71565;BME280;59397;50.952;14.502;2024-03-23T05:32:41;960.47;;;5.80;100.00
71565;BME280;59397;50.952;14.502;2024-03-23T05:52:13;959.95;;;5.88;100.00
71565;BME280;59397;50.952;14.502;2024-03-23T06:11:53;959.50;;;7.26;100.00
71565;BME280;59397;50.952;14.502;2024-03-23T06:31:29;956.99;;;6.73;100.00
71565;BME280;59397;50.952;14.502;2024-03-23T06:51:07;958.97;;;9.87;100.00
71565;BME280;59397;50.952;14.502;2024-03-23T07:10:40;958.67;;;8.85;100.00
71565;BME280;59397;50.952;14.502;2024-03-23T07:30:15;958.58;;;10.25;100.00
71565;BME280;59397;50.952;14.502;2024-03-23T07:49:52;958.58;;;10.16;100.00
71565;BME280;59397;50.952;14.502;2024-03-23T08:09:29;957.77;;;11.05;100.00
71565;BME280;59397;50.952;14.502;2024-03-23T08:29:04;957.09;;;11.55;100.00
71565;BME280;59397;50.952;14.502;2024-03-23T08:48:40;956.61;;;11.86;100.00
71565;BME280;59397;50.952;14.502;2024-03-23T09:08:18;956.53;;;12.28;100.00
71565;BME280;59397;50.952;14.502;2024-03-23T09:27:52;956.53;;;11.84;100.00
71565;BME280;59397;50.952;14.502;2024-03-23T09:47:27;956.68;;;11.56;100.00
71565;BME280;59397;50.952;14.502;2024-03-23T10:06:57;956.62;;;11.02;100.00
71565;BME280;59397;50.952;14.502;2024-03-23T10:26:30;956.98;;;10.47;100.00
71565;BME280;59397;50.952;14.502;2024-03-23T10:46:02;957.67;;;8.90;100.00
71565;BME280;59397;50.952;14.502;2024-03-23T11:05:34;958.56;;;8.61;100.00
71565;BME280;59397;50.952;14.502;2024-03-23T11:24:58;960.09;;;5.48;100.00
71565;BME280;59397;50.952;14.502;2024-03-23T11:44:28;960.78;;;5.23;100.00
71565;BME280;59397;50.952;14.502;2024-03-23T12:04:03;960.75;;;5.25;100.00
71565;BME280;59397;50.952;14.502;2024-03-23T12:23:34;961.10;;;4.23;100.00
71565;BME280;59397;50.952;14.502;2024-03-23T12:43:10;961.49;;;4.69;100.00
71565;BME280;59397;50.952;14.502;2024-03-23T13:02:44;961.59;;;6.27;100.00
71565;BME280;59397;50.952;14.502;2024-03-23T13:22:16;961.71;;;4.80;100.00
71565;BME280;59397;50.952;14.502;2024-03-23T13:41:48;962.64;;;4.74;100.00
71565;BME280;59397;50.952;14.502;2024-03-23T14:01:24;962.54;;;4.48;100.00
71565;BME280;59397;50.952;14.502;2024-03-23T14:20:58;962.76;;;5.84;100.00
71565;BME280;59397;50.952;14.502;2024-03-23T14:40:31;962.79;;;5.52;100.00
71565;BME280;59397;50.952;14.502;2024-03-23T15:00:07;962.50;;;6.09;100.00
71565;BME280;59397;50.952;14.502;2024-03-23T15:19:40;962.60;;;6.42;100.00
71565;BME280;59397;50.952;14.502;2024-03-23T15:39:11;962.75;;;5.27;100.00
71565;BME280;59397;50.952;14.502;2024-03-23T15:58:45;962.51;;;5.48;100.00
71565;BME280;59397;50.952;14.502;2024-03-23T16:18:18;961.96;;;5.80;100.00
71565;BME280;59397;50.952;14.502;2024-03-23T16:37:50;962.16;;;5.15;100.00
71565;BME280;59397;50.952;14.502;2024-03-23T16:57:24;962.14;;;5.29;100.00
71565;BME280;59397;50.952;14.502;2024-03-23T17:16:59;963.01;;;3.08;100.00
71565;BME280;59397;50.952;14.502;2024-03-23T17:36:28;963.11;;;2.62;100.00
71565;BME280;59397;50.952;14.502;2024-03-23T17:56:03;963.20;;;3.13;100.00
71565;BME280;59397;50.952;14.502;2024-03-23T18:15:37;963.42;;;3.61;100.00
71565;BME280;59397;50.952;14.502;2024-03-23T18:35:11;963.54;;;4.09;100.00
71565;BME280;59397;50.952;14.502;2024-03-23T18:54:45;963.24;;;3.42;100.00
71565;BME280;59397;50.952;14.502;2024-03-23T19:14:16;963.00;;;3.55;100.00
71565;BME280;59397;50.952;14.502;2024-03-23T19:33:49;963.08;;;3.13;100.00
71565;BME280;59397;50.952;14.502;2024-03-23T19:53:22;962.95;;;2.43;100.00
71565;BME280;59397;50.952;14.502;2024-03-23T20:12:57;962.78;;;2.80;100.00
71565;BME280;59397;50.952;14.502;2024-03-23T20:32:29;962.88;;;2.53;100.00
71565;BME280;59397;50.952;14.502;2024-03-23T20:52:02;962.78;;;2.01;100.00
71565;BME280;59397;50.952;14.502;2024-03-23T21:11:35;962.88;;;1.80;100.00
71565;BME280;59397;50.952;14.502;2024-03-23T21:31:08;962.75;;;1.45;100.00
71565;BME280;59397;50.952;14.502;2024-03-23T21:50:42;962.49;;;1.55;100.00
71565;BME280;59397;50.952;14.502;2024-03-23T22:10:14;962.28;;;1.79;100.00
71565;BME280;59397;50.952;14.502;2024-03-23T22:29:46;962.07;;;1.28;100.00
71565;BME280;59397;50.952;14.502;2024-03-23T22:49:18;961.97;;;1.40;100.00
71565;BME280;59397;50.952;14.502;2024-03-23T23:08:52;961.93;;;1.36;100.00
71565;BME280;59397;50.952;14.502;2024-03-23T23:28:28;962.05;;;1.48;100.00
71565;BME280;59397;50.952;14.502;2024-03-23T23:48:03;961.91;;;1.20;100.00
